Time;durP1;ratioP1;P1;durP2;ratioP2;P2;SDS_P1;SDS_P2;PMS_P1;PMS_P2;Temp;Humidity;BMP_temperature;BMP_pressure;BME280_temperature;BME280_humidity;BME280_pressure;Samples;Min_cycle;Max_cycle;Signal;HPM_P1;HPM_P2
2022/07/28 00:01:37;;;;;;;4.03;1.33;;;;;;;10.69;100.00;101362.31;4936355;29;20834;-84
2022/07/28 00:04:11;;;;;;;4.22;1.10;;;;;;;10.62;100.00;101364.41;4935186;29;20440;-82
2022/07/28 00:06:39;;;;;;;4.78;1.30;;;;;;;10.53;100.00;101361.38;4935150;29;20434;-85
2022/07/28 00:09:12;;;;;;;4.80;1.10;;;;;;;10.59;100.00;101354.88;4935660;29;20511;-85
2022/07/28 00:11:46;;;;;;;2.85;1.10;;;;;;;10.65;100.00;101358.47;4927254;29;20438;-83
2022/07/28 00:14:20;;;;;;;3.20;1.00;;;;;;;10.58;100.00;101341.53;4950821;29;20543;-83
2022/07/28 00:16:48;;;;;;;3.42;1.25;;;;;;;10.55;100.00;101354.59;4934765;29;20755;-84
2022/07/28 00:19:22;;;;;;;3.10;1.20;;;;;;;10.64;100.00;101359.53;4948908;29;20437;-83
2022/07/28 00:21:55;;;;;;;3.17;1.17;;;;;;;10.58;100.00;101358.69;4934989;29;20432;-86
2022/07/28 00:24:29;;;;;;;2.43;1.20;;;;;;;10.44;100.00;101358.34;4925050;29;20432;-85
2022/07/28 00:26:59;;;;;;;2.80;1.13;;;;;;;10.46;100.00;101355.34;4950163;28;20442;-83
2022/07/28 00:29:32;;;;;;;3.70;1.15;;;;;;;10.46;100.00;101345.28;4934606;29;20433;-84
2022/07/28 00:32:06;;;;;;;4.05;1.10;;;;;;;10.44;100.00;101369.22;4946658;28;20437;-84
2022/07/28 00:34:39;;;;;;;4.57;1.20;;;;;;;10.37;100.00;101349.56;4929780;29;20441;-84
2022/07/28 00:37:07;;;;;;;4.20;1.25;;;;;;;10.44;100.00;101358.34;4949842;29;20909;-84
2022/07/28 00:39:35;;;;;;;5.10;1.45;;;;;;;10.40;100.00;101353.66;4936381;29;20434;-84
2022/07/28 00:42:11;;;;;;;5.35;1.40;;;;;;;10.26;100.00;101353.28;4951582;28;20434;-82
2022/07/28 00:44:44;;;;;;;4.07;1.30;;;;;;;10.23;100.00;101351.88;4931302;29;20436;-83
2022/07/28 00:47:18;;;;;;;3.08;1.02;;;;;;;10.09;100.00;101343.34;4933734;29;20791;-83
2022/07/28 00:49:49;;;;;;;5.28;1.35;;;;;;;10.09;100.00;101348.78;4930536;29;20909;-84
2022/07/28 00:52:22;;;;;;;3.70;1.20;;;;;;;10.21;100.00;101354.06;4952298;29;20426;-86
2022/07/28 00:54:57;;;;;;;4.68;1.30;;;;;;;10.35;100.00;101357.19;4935059;29;20432;-85
2022/07/28 00:57:27;;;;;;;4.20;1.20;;;;;;;10.18;100.00;101341.78;4952902;28;20431;-84
2022/07/28 00:59:55;;;;;;;4.63;1.30;;;;;;;10.28;100.00;101354.66;4925376;29;20431;-84
2022/07/28 01:02:28;;;;;;;3.40;1.20;;;;;;;10.30;100.00;101357.94;4950927;29;20438;-83
2022/07/28 01:05:02;;;;;;;4.50;1.27;;;;;;;10.12;100.00;101344.75;4950920;28;20425;-83
2022/07/28 01:07:43;;;;;;;3.45;1.50;;;;;;;10.26;100.00;101348.66;4951908;28;20422;-84
2022/07/28 01:10:19;;;;;;;2.60;1.13;;;;;;;9.98;100.00;101311.72;4954121;28;20898;-84
2022/07/28 01:13:02;;;;;;;3.08;1.25;;;;;;;10.24;100.00;101360.88;4950142;29;20440;-84
2022/07/28 01:15:40;;;;;;;5.38;1.45;;;;;;;10.29;100.00;101352.75;4941276;29;20434;-85
2022/07/28 01:18:18;;;;;;;4.40;1.30;;;;;;;10.41;100.00;101363.47;4927950;29;20791;-84
2022/07/28 01:20:55;;;;;;;5.85;1.52;;;;;;;10.29;100.00;101361.75;4935511;29;20438;-83
2022/07/28 01:23:51;;;;;;;2.95;1.35;;;;;;;10.14;100.00;101356.19;4951418;29;20434;-84
2022/07/28 01:26:39;;;;;;;3.67;1.50;;;;;;;10.10;100.00;101364.03;4934743;29;20439;-85
2022/07/28 01:29:27;;;;;;;4.80;1.70;;;;;;;10.11;100.00;101370.28;4946839;29;20429;-85
2022/07/28 01:32:06;;;;;;;5.95;1.63;;;;;;;10.06;100.00;101367.53;4929119;29;20770;-84
2022/07/28 01:34:50;;;;;;;4.00;1.40;;;;;;;10.03;100.00;101366.16;4946261;29;20437;-86
2022/07/28 01:37:24;;;;;;;7.75;1.80;;;;;;;10.01;100.00;101368.31;4932171;28;20440;-83
2022/07/28 01:39:56;;;;;;;3.08;1.25;;;;;;;10.07;100.00;101369.16;4929568;29;20887;-86
2022/07/28 01:42:35;;;;;;;4.07;1.27;;;;;;;10.03;100.00;101366.16;4949313;28;20450;-83
2022/07/28 01:45:04;;;;;;;4.45;1.50;;;;;;;10.01;100.00;101366.41;4943019;29;20499;-84
2022/07/28 01:47:35;;;;;;;5.82;1.58;;;;;;;10.03;100.00;101360.72;4950124;29;20421;-84
2022/07/28 01:50:11;;;;;;;3.53;1.40;;;;;;;9.79;100.00;101325.72;4950152;29;20430;-85
2022/07/28 01:52:47;;;;;;;6.03;1.40;;;;;;;10.07;100.00;101370.00;4936879;28;20444;-85
2022/07/28 01:55:22;;;;;;;3.95;1.40;;;;;;;10.03;100.00;101366.16;4945510;28;20434;-83
2022/07/28 01:57:57;;;;;;;5.95;1.60;;;;;;;10.01;100.00;101368.31;4926332;29;20427;-83
2022/07/28 02:00:32;;;;;;;7.28;1.60;;;;;;;9.98;100.00;101374.28;4950888;29;20438;-84
2022/07/28 02:03:09;;;;;;;3.67;1.33;;;;;;;9.98;100.00;101375.06;4947600;29;20484;-85
2022/07/28 02:05:44;;;;;;;4.93;1.60;;;;;;;9.78;100.00;101372.19;4945250;28;20437;-84
2022/07/28 02:08:13;;;;;;;3.40;1.35;;;;;;;9.86;100.00;101367.09;4941855;29;20797;-85
2022/07/28 02:11:38;;;;;;;3.17;1.50;;;;;;;9.86;100.00;101367.09;4948483;29;20752;-84
2022/07/28 02:13:39;;;;;;;4.85;1.40;;;;;;;9.59;100.00;101315.47;4949654;28;20436;-85
2022/07/28 02:16:18;;;;;;;2.60;1.48;;;;;;;9.80;100.00;101361.88;4946161;29;20430;-84
2022/07/28 02:18:55;;;;;;;4.30;1.30;;;;;;;9.90;100.00;101372.03;4931949;29;20425;-84
2022/07/28 02:21:31;;;;;;;4.93;1.52;;;;;;;9.82;100.00;101370.59;4950887;29;20418;-85
2022/07/28 02:24:06;;;;;;;3.83;1.38;;;;;;;9.83;100.00;101374.94;4939338;29;20425;-82
2022/07/28 02:26:44;;;;;;;4.38;1.52;;;;;;;9.80;100.00;101370.84;4918512;29;20468;-83
2022/07/28 02:29:22;;;;;;;3.83;1.40;;;;;;;9.85;100.00;101368.19;4930561;29;20422;-85
2022/07/28 02:32:03;;;;;;;4.43;1.38;;;;;;;9.83;100.00;101369.50;4948857;29;20457;-84
2022/07/28 02:34:40;;;;;;;4.18;1.38;;;;;;;9.79;100.00;101368.38;4943822;29;20430;-84
2022/07/28 02:37:14;;;;;;;4.47;1.40;;;;;;;9.68;100.00;101381.88;4951634;29;20811;-85
2022/07/28 02:39:51;;;;;;;3.92;1.30;;;;;;;9.68;100.00;101381.88;4934525;29;20436;-85
2022/07/28 02:42:31;;;;;;;5.13;1.40;;;;;;;9.57;100.00;101392.91;4950976;28;20460;-84
2022/07/28 02:45:02;;;;;;;5.03;1.60;;;;;;;9.65;100.00;101389.72;4923039;29;20427;-86
2022/07/28 02:47:35;;;;;;;3.30;1.25;;;;;;;9.64;100.00;101390.78;4949941;28;20441;-85
2022/07/28 02:50:11;;;;;;;4.72;1.60;;;;;;;9.60;100.00;101387.78;4936876;29;20422;-85
2022/07/28 02:52:46;;;;;;;3.22;1.40;;;;;;;9.66;100.00;101385.94;4952903;29;20413;-85
2022/07/28 02:55:19;;;;;;;5.22;1.70;;;;;;;9.60;100.00;101382.34;4955917;29;20437;-84
2022/07/28 02:57:48;;;;;;;4.10;1.30;;;;;;;9.58;100.00;101389.09;4937491;29;20426;-84
2022/07/28 03:00:23;;;;;;;5.30;1.50;;;;;;;9.39;100.00;101377.75;4944948;29;20444;-85
2022/07/28 03:02:57;;;;;;;2.92;1.33;;;;;;;9.37;100.00;101397.03;4936969;29;20429;-84
2022/07/28 03:05:32;;;;;;;6.20;1.80;;;;;;;9.35;100.00;101399.19;4953676;29;20430;-84
2022/07/28 03:08:05;;;;;;;3.72;1.55;;;;;;;9.25;100.00;101386.28;4955147;29;20902;-84
2022/07/28 03:10:34;;;;;;;4.20;1.50;;;;;;;9.28;100.00;101388.53;4956079;29;20433;-84
2022/07/28 03:13:07;;;;;;;3.90;1.58;;;;;;;9.34;100.00;101382.06;4950852;28;20456;-85
2022/07/28 03:15:38;;;;;;;4.30;1.67;;;;;;;9.51;100.00;101402.88;4951810;29;20437;-84
2022/07/28 03:18:12;;;;;;;4.32;1.80;;;;;;;9.34;100.00;101373.09;4953907;29;20430;-84
2022/07/28 03:20:41;;;;;;;4.90;1.90;;;;;;;9.56;100.00;101405.66;4936212;29;20430;-84
2022/07/28 03:23:15;;;;;;;3.60;1.58;;;;;;;9.49;100.00;101386.03;4950995;28;20441;-85
2022/07/28 03:25:52;;;;;;;4.30;1.50;;;;;;;9.66;100.00;101411.19;4948270;29;20422;-84
2022/07/28 03:28:27;;;;;;;4.03;1.60;;;;;;;9.67;100.00;101409.31;4937396;28;20449;-85
2022/07/28 03:31:03;;;;;;;5.57;1.50;;;;;;;9.70;100.00;101406.09;4956245;28;20429;-85
2022/07/28 03:33:38;;;;;;;5.22;1.50;;;;;;;9.80;100.00;101406.19;4954161;29;20426;-84
2022/07/28 03:36:16;;;;;;;4.40;1.60;;;;;;;9.88;100.00;101408.44;4952785;29;20429;-85
2022/07/28 03:38:49;;;;;;;5.00;1.30;;;;;;;9.86;100.00;101407.06;4955885;28;20433;-85
2022/07/28 03:41:24;;;;;;;4.97;1.50;;;;;;;9.95;100.00;101412.84;4936805;29;20426;-85
2022/07/28 03:44:01;;;;;;;3.40;1.50;;;;;;;9.93;100.00;101415.84;4937491;29;20440;-85
2022/07/28 03:46:29;;;;;;;4.15;1.60;;;;;;;9.94;100.00;101403.84;4954627;28;20438;-86
2022/07/28 03:49:07;;;;;;;3.45;1.30;;;;;;;10.12;100.00;101412.72;4955772;28;20429;-85
2022/07/28 03:51:37;;;;;;;3.65;1.50;;;;;;;10.07;100.00;101410.78;4954994;28;20437;-85
2022/07/28 03:54:05;;;;;;;6.75;1.60;;;;;;;10.24;100.00;101423.44;4929990;29;20814;-86
2022/07/28 03:56:38;;;;;;;6.32;1.70;;;;;;;10.33;100.00;101430.88;4946341;29;20442;-85
2022/07/28 03:59:11;;;;;;;4.55;1.50;;;;;;;10.43;100.00;101426.63;4930725;29;20945;-85
2022/07/28 04:01:45;;;;;;;4.50;1.48;;;;;;;10.43;100.00;101424.72;4947557;28;20438;-84
2022/07/28 04:04:18;;;;;;;5.03;1.38;;;;;;;10.44;100.00;101422.81;4952807;29;20433;-84
2022/07/28 04:06:52;;;;;;;5.68;1.40;;;;;;;10.49;100.00;101417.41;4956881;28;20447;-85
2022/07/28 04:09:21;;;;;;;4.37;1.40;;;;;;;10.57;100.00;101416.13;4954546;28;21296;-86
2022/07/28 04:11:55;;;;;;;3.83;1.20;;;;;;;10.67;100.00;101427.06;4953723;28;20454;-85
2022/07/28 04:14:28;;;;;;;4.53;1.33;;;;;;;10.52;100.00;101395.94;4950318;29;20434;-86
2022/07/28 04:17:01;;;;;;;2.97;1.00;;;;;;;10.72;100.00;101421.66;4953501;29;20457;-86
2022/07/28 04:19:34;;;;;;;2.87;1.30;;;;;;;10.76;100.00;101406.44;4945288;29;20425;-86
2022/07/28 04:22:03;;;;;;;3.65;1.30;;;;;;;10.75;100.00;101418.41;4935745;29;20429;-86
2022/07/28 04:24:37;;;;;;;2.67;1.10;;;;;;;10.82;100.00;101418.97;4951548;28;20910;-84
2022/07/28 04:27:05;;;;;;;3.88;1.10;;;;;;;10.86;100.00;101425.53;4927957;28;20826;-85
2022/07/28 04:29:39;;;;;;;3.08;1.08;;;;;;;10.90;100.00;101425.84;4951850;28;20433;-85
2022/07/28 04:32:07;;;;;;;4.38;1.20;;;;;;;10.87;100.00;101437.28;4948258;29;20421;-85
2022/07/28 04:34:40;;;;;;;3.13;1.10;;;;;;;10.88;100.00;101431.56;4951683;29;20860;-85
2022/07/28 04:37:10;;;;;;;4.07;1.30;;;;;;;10.96;100.00;101438.41;4948652;29;20437;-85
2022/07/28 04:39:43;;;;;;;4.18;1.30;;;;;;;11.05;100.00;101430.56;4945155;28;21188;-85
2022/07/28 04:42:17;;;;;;;4.60;1.10;;;;;;;11.17;100.00;101433.06;4936026;28;20437;-86
2022/07/28 04:44:50;;;;;;;3.38;1.20;;;;;;;11.12;100.00;101435.78;4916881;29;20446;-84
2022/07/28 04:47:23;;;;;;;4.57;1.20;;;;;;;11.14;100.00;101439.03;4951414;29;20414;-84
2022/07/28 04:49:57;;;;;;;3.10;1.30;;;;;;;11.12;100.00;101433.88;4934794;29;20445;-84
2022/07/28 04:52:32;;;;;;;2.60;1.20;;;;;;;11.02;100.00;101448.25;4952122;29;20895;-85
2022/07/28 04:55:06;;;;;;;3.97;1.40;;;;;;;10.75;100.00;101448.34;4948221;29;20429;-85
2022/07/28 04:57:40;;;;;;;3.70;1.50;;;;;;;10.50;100.00;101449.81;4942558;28;20438;-84
2022/07/28 05:00:14;;;;;;;3.90;1.43;;;;;;;10.49;100.00;101452.78;4950541;28;20504;-84
2022/07/28 05:02:47;;;;;;;3.83;1.60;;;;;;;10.48;100.00;101422.03;4942250;29;20436;-85
2022/07/28 05:05:16;;;;;;;2.40;1.43;;;;;;;10.85;100.00;101444.88;4951148;29;20425;-85
2022/07/28 05:07:50;;;;;;;4.32;1.50;;;;;;;11.02;100.00;101439.25;4950758;28;20910;-86
2022/07/28 05:10:24;;;;;;;4.25;1.27;;;;;;;11.00;100.00;101441.44;4953382;28;20430;-85
2022/07/28 05:12:57;;;;;;;6.47;1.58;;;;;;;11.29;100.00;101432.84;4939546;29;20441;-84
2022/07/28 05:15:30;;;;;;;4.35;1.40;;;;;;;11.52;100.00;101439.75;4944431;29;20965;-83
2022/07/28 05:18:04;;;;;;;5.70;1.60;;;;;;;11.65;100.00;101428.31;4948474;29;20452;-84
2022/07/28 05:20:37;;;;;;;3.78;1.52;;;;;;;11.76;100.00;101431.09;4934292;29;20903;-84
2022/07/28 05:23:12;;;;;;;3.15;1.10;;;;;;;11.76;100.00;101423.72;4930855;29;20443;-84
2022/07/28 05:25:40;;;;;;;4.35;1.50;;;;;;;11.86;100.00;101437.41;4943720;28;20418;-85
2022/07/28 05:28:08;;;;;;;4.15;1.40;;;;;;;11.92;100.00;101432.75;4938414;29;20918;-84
2022/07/28 05:30:41;;;;;;;3.17;1.40;;;;;;;12.00;100.00;101429.53;4949275;29;20473;-85
2022/07/28 05:33:15;;;;;;;3.00;1.30;;;;;;;12.23;100.00;101435.53;4941674;28;20836;-85
2022/07/28 05:35:52;;;;;;;4.73;1.30;;;;;;;12.28;100.00;101441.00;4927606;29;20425;-83
2022/07/28 05:38:29;;;;;;;9.05;1.33;;;;;;;12.28;100.00;101440.19;4956408;28;20764;-84
2022/07/28 05:40:57;;;;;;;6.23;1.10;;;;;;;12.43;100.00;101437.47;4957632;29;20457;-90
2022/07/28 05:43:30;;;;;;;7.75;1.40;;;;;;;12.62;100.00;101445.09;4959816;28;20420;-90
2022/07/28 05:46:04;;;;;;;3.40;1.20;;;;;;;12.67;100.00;101442.34;4955198;28;20447;-93
2022/07/28 05:48:33;;;;;;;4.00;1.23;;;;;;;12.74;100.00;101443.69;4960329;29;20406;-92
2022/07/28 05:51:07;;;;;;;6.32;1.30;;;;;;;12.86;100.00;101446.13;4949443;29;20425;-89
2022/07/28 05:53:41;;;;;;;4.50;1.15;;;;;;;12.81;100.00;101435.22;4947309;28;20911;-90
2022/07/28 05:56:10;;;;;;;2.80;0.93;;;;;;;12.91;100.00;101437.94;4959491;28;20425;-90
2022/07/28 05:58:38;;;;;;;3.95;1.13;;;;;;;13.07;100.00;101452.38;4942186;28;20455;-90
2022/07/28 06:01:12;;;;;;;5.22;1.23;;;;;;;13.03;100.00;101437.63;4942985;29;20432;-90
2022/07/28 06:03:45;;;;;;;5.65;1.20;;;;;;;13.11;100.00;101463.56;4949984;28;20455;-92
2022/07/28 06:06:19;;;;;;;5.55;1.13;;;;;;;13.10;100.00;101459.19;4947564;29;21051;-91
2022/07/28 06:08:49;;;;;;;2.65;0.98;;;;;;;12.80;100.00;101402.72;4946458;28;21724;-90
2022/07/28 06:11:22;;;;;;;3.83;1.00;;;;;;;13.15;100.00;101461.13;4933446;29;21105;-86
2022/07/28 06:13:52;;;;;;;3.15;1.02;;;;;;;12.83;100.00;101441.25;4927485;29;20449;-86
2022/07/28 06:16:21;;;;;;;4.78;1.20;;;;;;;12.53;100.00;101391.03;4938497;28;20445;-89
2022/07/28 06:18:55;;;;;;;3.70;1.40;;;;;;;12.75;100.00;101452.72;4940578;29;20434;-82
2022/07/28 06:21:24;;;;;;;5.53;1.27;;;;;;;12.72;100.00;101387.75;4946204;28;20449;-83
2022/07/28 06:24:01;;;;;;;6.40;1.20;;;;;;;13.33;100.00;101456.94;4940305;28;20442;-85
2022/07/28 06:26:29;;;;;;;3.25;1.25;;;;;;;13.34;100.00;101439.44;4935982;28;20445;-84
2022/07/28 06:29:02;;;;;;;5.45;1.42;;;;;;;13.61;100.00;101455.47;4939044;28;20433;-86
2022/07/28 06:31:30;;;;;;;3.13;1.17;;;;;;;13.73;100.00;101455.16;4925536;29;20437;-85
2022/07/28 06:34:03;;;;;;;3.30;1.20;;;;;;;14.02;100.00;101454.44;4922844;29;20442;-86
2022/07/28 06:36:37;;;;;;;3.42;0.98;;;;;;;13.94;100.00;101450.38;4939927;29;20426;-87
2022/07/28 06:39:12;;;;;;;3.03;1.15;;;;;;;13.74;100.00;101407.53;4929571;29;20445;-88
2022/07/28 06:41:45;;;;;;;4.57;1.20;;;;;;;14.21;100.00;101451.81;4926348;28;20445;-85
2022/07/28 06:44:19;;;;;;;4.88;1.13;;;;;;;14.58;100.00;101455.88;4924684;28;20885;-84
2022/07/28 06:46:53;;;;;;;4.20;1.30;;;;;;;14.81;100.00;101459.81;4941949;28;20428;-85
2022/07/28 06:49:22;;;;;;;4.05;1.00;;;;;;;14.87;100.00;101457.84;4933069;29;20438;-84
2022/07/28 06:51:50;;;;;;;3.72;1.05;;;;;;;14.62;100.00;101424.06;4941296;29;20430;-84
2022/07/28 06:54:25;;;;;;;2.08;1.00;;;;;;;14.74;100.00;101456.59;4942116;29;20444;-86
2022/07/28 06:56:53;;;;;;;2.10;0.90;;;;;;;14.75;100.00;101450.03;4945586;28;20433;-92
2022/07/28 06:59:22;;;;;;;2.08;0.73;;;;;;;14.67;100.00;101447.91;4923880;29;20441;-84
2022/07/28 07:02:00;;;;;;;5.07;1.07;;;;;;;14.62;100.00;101432.28;4944162;28;20430;-84
2022/07/28 07:04:28;;;;;;;3.00;0.93;;;;;;;14.86;100.00;101456.19;4921714;28;20430;-82
2022/07/28 07:07:02;;;;;;;3.60;1.00;;;;;;;15.01;100.00;101458.78;4935064;28;20437;-84
2022/07/28 07:09:31;;;;;;;3.37;0.90;;;;;;;15.09;100.00;101449.94;4917104;29;20571;-83
2022/07/28 07:12:00;;;;;;;4.75;1.10;;;;;;;15.16;100.00;101456.97;4929440;28;20434;-85
2022/07/28 07:14:29;;;;;;;3.60;0.82;;;;;;;15.10;100.00;101459.78;4911466;29;20445;-84
2022/07/28 07:17:02;;;;;;;4.53;0.97;;;;;;;15.15;100.00;101456.19;4930434;28;20442;-84
2022/07/28 07:19:35;;;;;;;3.08;0.80;;;;;;;15.20;100.00;101452.53;4937609;28;21103;-84
2022/07/28 07:22:09;;;;;;;3.22;0.90;;;;;;;15.25;100.00;101469.75;4911462;29;20437;-83
2022/07/28 07:24:44;;;;;;;3.83;0.85;;;;;;;15.21;100.00;101467.91;4918785;29;21002;-84
2022/07/28 07:27:17;;;;;;;2.65;0.80;;;;;;;15.27;100.00;101455.75;4932456;28;20445;-88
2022/07/28 07:29:52;;;;;;;3.10;1.00;;;;;;;15.32;100.00;101465.84;4935144;29;20421;-86
2022/07/28 07:32:25;;;;;;;3.30;0.83;;;;;;;15.24;100.00;101461.81;4937100;28;20446;-84
2022/07/28 07:34:59;;;;;;;4.00;1.10;;;;;;;15.06;100.00;101471.63;4920197;28;20450;-85
2022/07/28 07:37:32;;;;;;;3.95;0.82;;;;;;;14.98;100.00;101477.75;4921885;28;20457;-84
2022/07/28 07:40:02;;;;;;;2.47;0.90;;;;;;;14.96;100.00;101472.53;4907902;29;20448;-84
2022/07/28 07:42:36;;;;;;;2.50;0.80;;;;;;;14.83;100.00;101481.44;4932648;28;20434;-84
2022/07/28 07:45:09;;;;;;;3.03;0.70;;;;;;;14.95;100.00;101485.41;4926278;28;21133;-83
2022/07/28 07:47:43;;;;;;;3.70;0.90;;;;;;;15.05;100.00;101478.19;4920907;29;20433;-84
2022/07/28 07:50:16;;;;;;;2.20;0.70;;;;;;;15.00;100.00;101484.56;4913617;28;20449;-83
2022/07/28 07:52:49;;;;;;;1.10;0.60;;;;;;;15.01;100.00;101477.16;4936831;28;20847;-86
2022/07/28 07:55:19;;;;;;;2.72;0.75;;;;;;;14.91;100.00;101478.06;4911539;29;20946;-84
2022/07/28 07:57:52;;;;;;;2.88;0.80;;;;;;;14.86;100.00;101473.47;4918280;29;20950;-83
2022/07/28 08:00:25;;;;;;;2.15;0.75;;;;;;;14.94;100.00;101475.59;4925449;28;20437;-85
2022/07/28 08:02:59;;;;;;;3.10;0.80;;;;;;;14.92;100.00;101482.47;4932657;29;20434;-86
2022/07/28 08:05:33;;;;;;;3.90;1.20;;;;;;;14.89;100.00;101486.59;4932189;29;20437;-86
2022/07/28 08:08:06;;;;;;;3.97;0.75;;;;;;;15.08;100.00;101477.63;4911331;29;20449;-84
2022/07/28 08:10:38;;;;;;;2.95;0.80;;;;;;;15.13;100.00;101483.06;4913459;28;20453;-89
2022/07/28 08:13:07;;;;;;;2.23;0.80;;;;;;;14.89;100.00;101472.88;4932438;29;20445;-85
2022/07/28 08:15:40;;;;;;;2.05;0.77;;;;;;;15.00;100.00;101483.72;4941263;29;20477;-84
2022/07/28 08:18:14;;;;;;;3.78;0.80;;;;;;;15.41;100.00;101464.91;4922352;29;20448;-84
2022/07/28 08:20:47;;;;;;;3.05;0.70;;;;;;;15.53;100.00;101471.91;4906875;29;20433;-85
2022/07/28 08:23:16;;;;;;;3.28;0.82;;;;;;;15.45;100.00;101471.44;4910224;29;20434;-83
2022/07/28 08:25:50;;;;;;;3.55;0.90;;;;;;;15.46;100.00;101464.81;4924646;28;20448;-87
2022/07/28 08:28:23;;;;;;;1.70;0.70;;;;;;;15.80;100.00;101463.88;4926378;28;20977;-84
2022/07/28 08:30:57;;;;;;;1.65;0.70;;;;;;;16.03;100.00;101466.03;4907509;29;20460;-84
2022/07/28 08:33:30;;;;;;;7.10;1.92;;;;;;;16.15;100.00;101449.91;4926387;29;20444;-85
2022/07/28 08:36:03;;;;;;;1.40;0.70;;;;;;;16.47;100.00;101459.28;4926951;29;20442;-87
2022/07/28 08:38:36;;;;;;;3.58;0.90;;;;;;;16.44;93.38;101465.38;4909468;29;20813;-86
2022/07/28 08:41:17;;;;;;;2.75;0.63;;;;;;;16.20;94.51;101451.75;4929077;29;20441;-85
2022/07/28 08:43:49;;;;;;;3.20;0.80;;;;;;;16.03;100.00;101457.78;4929361;28;20432;-88
2022/07/28 08:46:19;;;;;;;1.77;0.75;;;;;;;16.03;100.00;101460.53;4918879;29;20434;-90
2022/07/28 08:48:52;;;;;;;3.25;0.90;;;;;;;15.91;95.13;101449.97;4931452;28;20457;-86
2022/07/28 08:51:21;;;;;;;2.85;0.70;;;;;;;15.77;97.44;101458.94;4917791;29;20440;-83
2022/07/28 08:53:50;;;;;;;4.32;0.80;;;;;;;15.63;98.67;101453.38;4914425;29;20430;-91
2022/07/28 08:56:24;;;;;;;3.00;0.80;;;;;;;15.68;95.34;101454.41;4929780;28;20453;-85
2022/07/28 08:58:53;;;;;;;3.35;0.88;;;;;;;15.71;96.46;101459.31;4930139;28;20806;-86
2022/07/28 09:01:27;;;;;;;1.90;0.70;;;;;;;15.67;100.00;101456.31;4931306;28;20516;-86
2022/07/28 09:04:02;;;;;;;2.05;0.70;;;;;;;15.84;100.00;101447.63;4919421;29;21130;-85
2022/07/28 09:06:30;;;;;;;1.48;0.70;;;;;;;15.76;99.65;101446.34;4916589;29;20445;-84
2022/07/28 09:09:04;;;;;;;3.13;0.80;;;;;;;15.84;100.00;101453.13;4910421;29;20448;-87
2022/07/28 09:11:38;;;;;;;2.70;0.88;;;;;;;16.21;100.00;101454.19;4918300;29;20430;-87
2022/07/28 09:14:12;;;;;;;1.73;0.63;;;;;;;16.21;100.00;101454.19;4936171;29;20441;-87
2022/07/28 09:16:40;;;;;;;2.10;0.68;;;;;;;16.16;100.00;101451.53;4928009;28;20945;-84
2022/07/28 09:19:14;;;;;;;2.60;0.63;;;;;;;16.09;100.00;101448.38;4924500;28;21019;-87
2022/07/28 09:21:47;;;;;;;1.88;0.65;;;;;;;16.13;92.52;101452.94;4925723;28;21036;-88
2022/07/28 09:24:34;;;;;;;2.00;0.70;;;;;;;16.18;94.08;101448.50;4933759;28;20436;-85
2022/07/28 09:27:10;;;;;;;3.10;0.88;;;;;;;16.14;100.00;101451.84;4902021;28;20441;-87
2022/07/28 09:29:41;;;;;;;3.53;0.80;;;;;;;16.06;100.00;101449.78;4928791;28;20441;-89
2022/07/28 09:32:09;;;;;;;2.45;1.00;;;;;;;15.90;98.38;101451.13;4907713;28;20453;-84
2022/07/28 09:34:44;;;;;;;3.90;0.88;;;;;;;16.00;100.00;101452.91;4925957;28;20448;-83
2022/07/28 09:37:20;;;;;;;3.00;0.70;;;;;;;16.15;100.00;101452.66;4904041;29;20809;-88
2022/07/28 09:39:57;;;;;;;1.42;0.77;;;;;;;16.09;95.31;101449.16;4919625;28;20546;-85
2022/07/28 09:42:45;;;;;;;4.10;0.80;;;;;;;16.27;99.83;101453.00;4923448;28;20481;-84
2022/07/28 09:45:13;;;;;;;2.05;0.60;;;;;;;16.31;100.00;101451.28;4896370;28;20449;-85
2022/07/28 09:47:42;;;;;;;2.78;0.70;;;;;;;16.55;91.86;101446.78;4917273;28;20438;-85
2022/07/28 09:50:19;;;;;;;2.28;0.73;;;;;;;16.67;88.37;101444.38;4907133;29;20846;-84
2022/07/28 09:52:52;;;;;;;2.95;0.85;;;;;;;17.14;89.73;101456.16;4925333;28;20795;-88
2022/07/28 09:55:26;;;;;;;1.85;0.70;;;;;;;17.27;81.90;101439.94;4906217;29;20478;-84
2022/07/28 09:58:09;;;;;;;1.30;0.60;;;;;;;17.16;79.74;101448.41;4917521;28;20434;-86
2022/07/28 10:00:43;;;;;;;1.95;0.80;;;;;;;16.83;96.72;101450.38;4921693;28;20974;-85
2022/07/28 10:03:11;;;;;;;1.38;0.70;;;;;;;16.77;89.73;101448.88;4920698;28;20440;-84
2022/07/28 10:05:45;;;;;;;3.80;0.90;;;;;;;16.63;95.68;101451.59;4912573;28;20461;-86
2022/07/28 10:08:18;;;;;;;2.63;0.90;;;;;;;16.44;97.71;101455.19;4899147;29;20445;-85
2022/07/28 10:10:58;;;;;;;2.90;0.77;;;;;;;16.61;98.63;101449.16;4921761;28;20436;-86
2022/07/28 10:13:33;;;;;;;2.17;0.70;;;;;;;16.61;100.00;101462.06;4925686;28;20430;-84
2022/07/28 10:16:10;;;;;;;2.55;0.80;;;;;;;16.77;96.14;101448.88;4899566;29;20441;-84
2022/07/28 10:18:40;;;;;;;1.42;0.75;;;;;;;16.68;96.42;101445.97;4913201;28;20433;-84
2022/07/28 10:21:15;;;;;;;3.65;0.93;;;;;;;16.76;100.00;101449.97;4896838;28;20449;-86
2022/07/28 10:23:51;;;;;;;3.50;0.90;;;;;;;16.82;89.41;101446.00;4913879;28;20437;-84
2022/07/28 10:26:29;;;;;;;3.35;0.90;;;;;;;16.73;96.25;101442.34;4917420;28;20433;-84
2022/07/28 10:29:03;;;;;;;6.78;1.98;;;;;;;16.81;95.24;101447.94;4925848;28;20441;-84
2022/07/28 10:31:44;;;;;;;2.55;0.88;;;;;;;16.74;92.81;101446.72;4901161;29;20438;-83
2022/07/28 10:34:19;;;;;;;1.77;0.75;;;;;;;17.05;100.00;101441.47;4920170;29;20998;-84
2022/07/28 10:36:49;;;;;;;2.80;0.80;;;;;;;17.12;100.00;101457.56;4904216;29;20441;-84
2022/07/28 10:39:25;;;;;;;3.83;0.97;;;;;;;17.03;97.20;101456.66;4909249;29;20636;-83
2022/07/28 10:41:59;;;;;;;1.90;0.80;;;;;;;16.95;89.85;101450.75;4896390;29;20453;-87
2022/07/28 10:44:34;;;;;;;2.42;0.95;;;;;;;16.98;95.31;101446.56;4898967;29;20446;-84
2022/07/28 10:47:02;;;;;;;3.50;0.90;;;;;;;17.27;99.29;101460.00;4904157;29;20429;-83
2022/07/28 10:49:37;;;;;;;4.03;0.95;;;;;;;17.45;96.07;101452.75;4903026;29;20442;-84
2022/07/28 10:52:06;;;;;;;1.52;0.63;;;;;;;17.32;87.85;101448.91;4918089;28;22535;-82
2022/07/28 10:54:42;;;;;;;2.65;0.80;;;;;;;17.07;85.25;101453.00;4907154;29;20442;-83
2022/07/28 10:57:12;;;;;;;1.73;0.70;;;;;;;17.14;91.35;101453.41;4906655;29;20927;-85
2022/07/28 10:59:58;;;;;;;1.45;0.70;;;;;;;17.14;91.42;101450.66;4920630;28;20418;-85
2022/07/28 11:02:50;;;;;;;1.90;0.80;;;;;;;17.23;90.93;101447.19;4913075;28;20534;-83
2022/07/28 11:05:32;;;;;;;4.10;1.00;;;;;;;17.53;92.68;101450.44;4904309;29;20952;-84
2022/07/28 11:08:03;;;;;;;2.78;0.80;;;;;;;17.75;84.05;101444.97;4906890;29;21131;-84
2022/07/28 11:10:44;;;;;;;1.58;0.80;;;;;;;17.72;86.65;101448.34;4924230;28;20449;-85
2022/07/28 11:13:28;;;;;;;3.50;0.80;;;;;;;17.65;91.92;101435.00;4910071;29;20442;-83
2022/07/28 11:16:21;;;;;;;1.70;0.80;;;;;;;17.85;100.00;101452.19;4929965;29;20456;-85
2022/07/28 11:19:06;;;;;;;1.60;0.70;;;;;;;17.83;85.25;101446.19;4905231;28;20886;-83
2022/07/28 11:22:20;;;;;;;2.60;0.90;;;;;;;17.60;89.09;101442.56;4925055;28;21025;-83
2022/07/28 11:25:12;;;;;;;2.97;0.90;;;;;;;17.49;85.73;101442.78;4923364;28;20464;-84
2022/07/28 11:28:03;;;;;;;3.35;1.00;;;;;;;17.58;85.53;101436.53;4897100;28;20445;-86
2022/07/28 11:30:50;;;;;;;3.63;1.02;;;;;;;18.15;92.06;101434.16;4899959;29;20443;-82
2022/07/28 11:33:28;;;;;;;3.67;0.88;;;;;;;18.47;82.62;101437.75;4920867;28;20430;-83
2022/07/28 11:35:58;;;;;;;2.78;0.80;;;;;;;18.73;76.93;101425.25;4916869;29;20446;-83
2022/07/28 11:38:31;;;;;;;3.57;0.80;;;;;;;18.36;82.76;101428.94;4923733;28;21026;-84
2022/07/28 11:41:30;;;;;;;2.42;0.90;;;;;;;18.99;91.60;101426.22;4921406;28;20438;-82
2022/07/28 11:44:23;;;;;;;2.42;0.90;;;;;;;19.19;83.08;101435.03;4899036;29;20422;-83
2022/07/28 11:47:16;;;;;;;1.08;0.70;;;;;;;19.56;82.83;101412.72;4901452;29;20438;-85
2022/07/28 11:50:13;;;;;;;1.75;0.73;;;;;;;19.02;74.38;101416.47;4922207;28;20446;-84
2022/07/28 11:52:53;;;;;;;2.60;0.68;;;;;;;18.75;71.33;101423.78;4922348;29;20460;-84